Time;durP1;ratioP1;P1;durP2;ratioP2;P2;SDS_P1;SDS_P2;PMS_P1;PMS_P2;Temp;Humidity;BMP_temperature;BMP_pressure;BME280_temperature;BME280_humidity;BME280_pressure;Samples;Min_cycle;Max_cycle;Signal;HPM_P1;HPM_P2
2022/11/13 00:00:31;;;;;;;9.52;7.05;;;11.60;99.90;;;;;;5020772;28;20433;-74
2022/11/13 00:02:57;;;;;;;10.07;7.03;;;11.50;99.90;;;;;;5020720;28;20438;-74
2022/11/13 00:05:23;;;;;;;11.20;7.10;;;11.50;99.90;;;;;;5035663;28;20072;-74
2022/11/13 00:07:49;;;;;;;9.00;6.85;;;11.40;99.90;;;;;;5018447;28;20073;-75
2022/11/13 00:10:15;;;;;;;9.10;6.57;;;11.40;99.90;;;;;;5025307;28;20084;-75
2022/11/13 00:12:41;;;;;;;11.57;7.22;;;11.40;99.90;;;;;;5033204;28;20014;-74
2022/11/13 00:15:07;;;;;;;9.70;7.20;;;11.30;99.90;;;;;;5025277;28;20030;-74
2022/11/13 00:17:33;;;;;;;9.25;7.30;;;11.30;99.90;;;;;;5030764;28;20448;-74
2022/11/13 00:19:59;;;;;;;10.25;7.55;;;11.30;99.90;;;;;;5018280;28;20021;-74
2022/11/13 00:22:25;;;;;;;12.38;7.13;;;11.30;99.90;;;;;;5029922;28;20521;-75
2022/11/13 00:24:50;;;;;;;8.65;7.47;;;11.30;99.90;;;;;;5020670;28;20073;-74
2022/11/13 00:27:16;;;;;;;9.23;7.43;;;11.20;99.90;;;;;;5031864;28;20026;-74
2022/11/13 00:29:42;;;;;;;9.57;6.65;;;11.20;99.90;;;;;;5018721;28;20022;-74
2022/11/13 00:32:08;;;;;;;8.68;7.55;;;11.10;99.90;;;;;;5017775;28;20018;-74
2022/11/13 00:34:34;;;;;;;10.82;7.40;;;11.10;99.90;;;;;;5018038;28;20034;-73
2022/11/13 00:37:00;;;;;;;8.73;6.82;;;11.00;99.90;;;;;;5036001;28;20471;-74
2022/11/13 00:39:25;;;;;;;12.25;7.63;;;11.00;99.90;;;;;;5025120;28;20446;-74
2022/11/13 00:41:51;;;;;;;12.40;8.75;;;11.00;99.90;;;;;;5030991;28;20053;-74
2022/11/13 00:44:17;;;;;;;9.52;8.52;;;11.00;99.90;;;;;;5025628;28;20187;-74
2022/11/13 00:46:43;;;;;;;11.52;8.27;;;11.00;99.90;;;;;;5026576;28;20025;-74
2022/11/13 00:49:09;;;;;;;12.43;8.10;;;10.90;99.90;;;;;;5024322;28;20030;-74
2022/11/13 00:51:35;;;;;;;13.80;8.20;;;11.00;99.90;;;;;;5023569;28;20022;-74
2022/11/13 00:54:01;;;;;;;10.93;8.55;;;10.90;99.90;;;;;;5019236;28;20044;-74
2022/11/13 00:56:27;;;;;;;13.27;8.27;;;10.90;99.90;;;;;;5021524;28;20032;-74
2022/11/13 00:58:52;;;;;;;12.10;8.30;;;10.90;99.90;;;;;;5022227;28;20426;-74
2022/11/13 01:01:19;;;;;;;10.48;8.48;;;10.80;99.90;;;;;;5014881;28;20033;-74
2022/11/13 01:03:45;;;;;;;12.82;8.80;;;10.80;99.90;;;;;;5012664;28;20034;-74
2022/11/13 01:06:17;;;;;;;10.85;8.13;;;10.80;99.90;;;;;;5018361;28;20387;-74
2022/11/13 01:08:43;;;;;;;17.77;9.30;;;10.80;99.90;;;;;;5015085;28;20038;-74
2022/11/13 01:11:13;;;;;;;14.43;8.35;;;10.80;99.90;;;;;;5031383;28;20060;-74
2022/11/13 01:13:41;;;;;;;11.85;9.23;;;10.80;99.90;;;;;;5019461;28;20046;-74
2022/11/13 01:16:09;;;;;;;14.80;9.25;;;10.80;99.90;;;;;;5044737;28;20077;-74
2022/11/13 01:18:36;;;;;;;11.52;8.77;;;10.80;99.90;;;;;;5020785;28;20490;-74
2022/11/13 01:21:05;;;;;;;9.77;8.35;;;10.70;99.90;;;;;;5019856;28;20509;-74
2022/11/13 01:23:32;;;;;;;10.63;8.50;;;10.70;99.90;;;;;;5015910;28;20037;-74
2022/11/13 01:26:25;;;;;;;14.05;9.05;;;10.70;99.90;;;;;;5019205;28;20035;-74
2022/11/13 01:28:52;;;;;;;21.15;9.57;;;10.60;99.90;;;;;;5009784;28;20033;-74
2022/11/13 01:31:21;;;;;;;11.75;8.73;;;10.60;99.90;;;;;;5018251;28;20046;-74
2022/11/13 01:33:48;;;;;;;11.85;9.63;;;10.60;99.90;;;;;;5026312;28;20025;-74
2022/11/13 01:36:22;;;;;;;12.60;9.15;;;10.60;99.90;;;;;;5029473;28;20055;-74
2022/11/13 01:38:48;;;;;;;11.20;9.20;;;10.50;99.90;;;;;;5010718;28;20041;-74
2022/11/13 01:41:23;;;;;;;17.75;10.80;;;10.50;99.90;;;;;;5027709;28;20075;-74
2022/11/13 01:43:49;;;;;;;17.77;9.63;;;10.50;99.90;;;;;;5026883;28;20397;-74
2022/11/13 01:46:34;;;;;;;13.50;9.30;;;10.50;99.90;;;;;;5040525;28;20464;-74
2022/11/13 01:49:09;;;;;;;13.02;10.40;;;10.50;99.90;;;;;;5018675;28;20089;-74
2022/11/13 01:51:47;;;;;;;13.18;10.63;;;10.50;99.90;;;;;;5021034;28;20021;-74
2022/11/13 01:54:19;;;;;;;12.77;10.05;;;10.40;99.90;;;;;;5017639;28;20029;-74
2022/11/13 01:56:45;;;;;;;13.23;10.02;;;10.40;99.90;;;;;;5020695;28;20053;-74
2022/11/13 01:59:21;;;;;;;17.90;10.27;;;10.40;99.90;;;;;;5020920;28;20439;-72
2022/11/13 02:01:48;;;;;;;18.08;10.82;;;10.40;99.90;;;;;;5018654;28;20060;-73
2022/11/13 02:04:14;;;;;;;19.85;10.55;;;10.40;99.90;;;;;;5016635;28;20088;-72
2022/11/13 02:06:50;;;;;;;15.07;10.93;;;10.40;99.90;;;;;;5017754;28;20018;-72
2022/11/13 02:09:21;;;;;;;11.95;10.13;;;10.40;99.90;;;;;;5025482;28;20018;-73
2022/11/13 02:11:47;;;;;;;12.18;10.70;;;10.40;99.90;;;;;;5029625;28;20394;-72
2022/11/13 02:14:13;;;;;;;18.85;11.65;;;10.40;99.90;;;;;;5023044;28;20128;-73
2022/11/13 02:16:41;;;;;;;13.15;11.23;;;10.40;99.90;;;;;;5028370;28;20528;-72
2022/11/13 02:19:15;;;;;;;15.82;10.57;;;10.40;99.90;;;;;;5016310;28;20033;-73
2022/11/13 02:21:51;;;;;;;15.35;10.30;;;10.30;99.90;;;;;;5022740;28;20027;-73
2022/11/13 02:24:20;;;;;;;11.55;9.82;;;10.20;99.90;;;;;;5014739;28;20042;-73
2022/11/13 02:26:49;;;;;;;15.73;10.38;;;10.20;99.90;;;;;;5019870;28;20018;-73
2022/11/13 02:29:15;;;;;;;12.75;9.93;;;10.10;99.90;;;;;;5017151;28;20034;-73
2022/11/13 02:31:41;;;;;;;13.05;9.98;;;10.00;99.90;;;;;;5020153;28;20547;-73
2022/11/13 02:34:07;;;;;;;13.30;9.98;;;9.90;99.90;;;;;;5023137;28;20034;-73
2022/11/13 02:36:34;;;;;;;12.50;9.50;;;9.80;99.90;;;;;;5021588;28;20030;-73
2022/11/13 02:39:03;;;;;;;13.32;10.38;;;9.80;99.90;;;;;;5027587;28;20068;-73
2022/11/13 02:41:29;;;;;;;13.57;10.98;;;9.80;99.90;;;;;;5026389;28;20025;-73
2022/11/13 02:43:55;;;;;;;18.08;10.38;;;9.80;99.90;;;;;;5027221;28;20112;-73
2022/11/13 02:46:21;;;;;;;14.88;10.05;;;9.80;99.90;;;;;;5023683;28;20029;-73
2022/11/13 02:48:46;;;;;;;15.27;11.27;;;9.80;99.90;;;;;;5024592;28;20090;-73
2022/11/13 02:51:13;;;;;;;14.88;11.20;;;9.70;99.90;;;;;;5021804;28;20467;-73
2022/11/13 02:53:39;;;;;;;18.10;12.02;;;9.70;99.90;;;;;;5020691;28;20044;-73
2022/11/13 02:56:05;;;;;;;14.70;10.82;;;9.70;99.90;;;;;;5019726;28;20097;-73
2022/11/13 02:58:31;;;;;;;15.85;10.82;;;9.70;99.90;;;;;;5018880;28;20033;-73
2022/11/13 03:00:57;;;;;;;17.40;11.15;;;9.70;99.90;;;;;;5016700;28;20496;-74
2022/11/13 03:03:22;;;;;;;12.55;10.38;;;9.70;99.90;;;;;;5013651;28;20037;-74
2022/11/13 03:05:49;;;;;;;15.63;10.48;;;9.70;99.90;;;;;;5016995;28;20018;-73
2022/11/13 03:08:15;;;;;;;16.90;10.70;;;9.70;99.90;;;;;;5013041;28;20034;-73
2022/11/13 03:10:42;;;;;;;15.93;10.70;;;9.70;99.90;;;;;;5026981;28;20444;-74
2022/11/13 03:13:07;;;;;;;15.40;11.55;;;9.70;99.90;;;;;;5025630;28;20026;-73
2022/11/13 03:15:33;;;;;;;15.75;12.18;;;9.70;99.90;;;;;;5026944;28;20041;-73
2022/11/13 03:18:04;;;;;;;14.82;12.07;;;9.80;99.90;;;;;;5028112;28;20038;-74
2022/11/13 03:20:30;;;;;;;14.15;11.43;;;9.80;99.90;;;;;;5021127;28;20014;-73
2022/11/13 03:22:56;;;;;;;20.52;11.35;;;9.80;99.90;;;;;;5023272;28;20128;-74
2022/11/13 03:25:22;;;;;;;17.27;12.80;;;9.80;99.90;;;;;;5020178;28;20054;-74
2022/11/13 03:27:48;;;;;;;14.32;11.30;;;9.80;99.90;;;;;;5019782;28;20022;-73
2022/11/13 03:30:14;;;;;;;12.38;10.15;;;9.80;99.90;;;;;;5036446;28;20462;-73
2022/11/13 03:32:39;;;;;;;14.60;10.75;;;9.70;99.90;;;;;;5019142;28;20080;-73
2022/11/13 03:35:06;;;;;;;16.95;10.85;;;9.60;99.90;;;;;;5020382;28;20026;-73
2022/11/13 03:37:31;;;;;;;16.65;10.60;;;9.60;99.90;;;;;;5027994;28;20021;-73
2022/11/13 03:39:57;;;;;;;12.73;10.15;;;9.50;99.90;;;;;;5020943;28;20029;-73
2022/11/13 03:42:23;;;;;;;11.40;9.73;;;9.40;99.90;;;;;;5035846;28;20057;-73
2022/11/13 03:44:49;;;;;;;12.25;8.85;;;9.40;99.90;;;;;;5038016;28;20029;-73
2022/11/13 03:47:15;;;;;;;12.27;9.75;;;9.30;99.90;;;;;;5048573;28;20025;-73
2022/11/13 03:49:40;;;;;;;10.85;8.88;;;9.30;99.90;;;;;;5022690;28;20506;-73
2022/11/13 03:52:06;;;;;;;14.63;9.20;;;9.20;99.90;;;;;;5029371;28;20021;-73
2022/11/13 03:54:32;;;;;;;14.45;9.05;;;9.10;99.90;;;;;;5037273;28;20041;-73
2022/11/13 03:56:58;;;;;;;15.73;8.57;;;9.10;99.90;;;;;;5025160;28;20076;-73
2022/11/13 03:59:24;;;;;;;12.10;8.20;;;9.00;99.90;;;;;;5024499;28;20026;-73
2022/11/13 04:01:49;;;;;;;9.88;8.05;;;9.00;99.90;;;;;;5021245;28;20498;-73
2022/11/13 04:04:15;;;;;;;12.38;9.70;;;9.00;99.90;;;;;;5019656;28;20384;-73
2022/11/13 04:06:41;;;;;;;10.98;8.35;;;8.90;99.90;;;;;;5017809;28;20065;-73
2022/11/13 04:09:07;;;;;;;10.60;8.57;;;8.90;99.90;;;;;;5022072;28;20030;-73
2022/11/13 04:11:33;;;;;;;14.25;8.95;;;8.80;99.90;;;;;;5033042;28;20470;-73
2022/11/13 04:13:59;;;;;;;9.07;8.05;;;8.70;99.90;;;;;;5025693;28;20034;-73
2022/11/13 04:16:24;;;;;;;9.68;7.72;;;8.70;99.90;;;;;;5034247;28;20107;-73
2022/11/13 04:18:50;;;;;;;11.00;8.30;;;8.70;99.90;;;;;;5019388;28;20022;-73
2022/11/13 04:21:16;;;;;;;13.90;9.18;;;8.70;99.90;;;;;;5023321;28;20057;-73
2022/11/13 04:23:42;;;;;;;13.70;9.32;;;8.70;99.90;;;;;;5017809;28;20033;-73
2022/11/13 04:26:08;;;;;;;12.75;8.93;;;8.70;99.90;;;;;;5019848;28;20075;-73
2022/11/13 04:28:33;;;;;;;9.48;8.48;;;8.60;99.90;;;;;;5021620;28;20018;-73
2022/11/13 04:30:59;;;;;;;13.32;8.75;;;8.60;99.90;;;;;;5019657;28;20049;-73
2022/11/13 04:33:25;;;;;;;12.48;8.75;;;8.50;99.90;;;;;;5034011;28;20030;-73
2022/11/13 04:35:51;;;;;;;13.75;9.13;;;8.50;99.90;;;;;;5034157;28;20083;-73
2022/11/13 04:38:16;;;;;;;10.27;9.23;;;8.50;99.90;;;;;;5027716;28;20109;-73
2022/11/13 04:40:42;;;;;;;14.13;9.05;;;8.50;99.90;;;;;;5026309;28;20029;-73
2022/11/13 04:43:08;;;;;;;14.55;10.20;;;8.50;99.90;;;;;;5028995;28;20037;-74
2022/11/13 04:45:35;;;;;;;15.38;9.40;;;8.50;99.90;;;;;;5026768;28;20089;-74
2022/11/13 04:48:00;;;;;;;12.07;9.40;;;8.50;99.90;;;;;;5027881;28;20030;-73
2022/11/13 04:50:27;;;;;;;13.05;10.07;;;8.60;99.90;;;;;;5025277;28;20031;-73
2022/11/13 04:52:52;;;;;;;10.50;9.38;;;8.60;99.90;;;;;;5026086;28;20133;-74
2022/11/13 04:55:19;;;;;;;12.32;9.80;;;8.60;99.90;;;;;;5037681;28;20038;-73
2022/11/13 04:57:44;;;;;;;13.85;10.13;;;8.60;99.90;;;;;;5032912;28;20017;-74
2022/11/13 05:00:11;;;;;;;14.57;11.13;;;8.70;99.90;;;;;;5019249;28;20041;-73
2022/11/13 05:02:36;;;;;;;13.90;10.95;;;8.60;99.90;;;;;;5022017;28;20117;-74
2022/11/13 05:05:03;;;;;;;13.40;10.15;;;8.60;99.90;;;;;;5018042;28;20038;-73
2022/11/13 05:07:29;;;;;;;12.55;9.93;;;8.60;99.90;;;;;;5033989;28;20018;-74
2022/11/13 05:09:55;;;;;;;16.10;9.75;;;8.50;99.90;;;;;;5024608;28;20437;-73
2022/11/13 05:12:21;;;;;;;12.35;10.48;;;8.50;99.90;;;;;;5032522;28;20089;-74
2022/11/13 05:14:47;;;;;;;13.18;9.95;;;8.40;99.90;;;;;;5024807;28;20037;-74
2022/11/13 05:17:13;;;;;;;13.88;10.48;;;8.40;99.90;;;;;;5015266;28;20057;-74
2022/11/13 05:19:38;;;;;;;14.93;9.75;;;8.30;99.90;;;;;;5015538;28;20405;-74
2022/11/13 05:22:05;;;;;;;13.02;10.18;;;8.30;99.90;;;;;;5019628;28;20026;-74
2022/11/13 05:24:31;;;;;;;16.17;9.20;;;8.30;99.90;;;;;;5017832;28;20382;-74
2022/11/13 05:26:57;;;;;;;13.32;10.25;;;8.30;99.90;;;;;;5023213;28;20010;-74
2022/11/13 05:29:23;;;;;;;13.82;10.27;;;8.30;99.90;;;;;;5020902;28;20026;-74
2022/11/13 05:31:49;;;;;;;12.50;9.82;;;8.30;99.90;;;;;;5022947;28;20014;-74
2022/11/13 05:34:15;;;;;;;13.65;10.07;;;8.30;99.90;;;;;;5017380;28;20549;-74
2022/11/13 05:36:40;;;;;;;12.50;8.90;;;8.20;99.90;;;;;;5037404;28;20025;-74
2022/11/13 05:39:06;;;;;;;11.05;9.05;;;8.20;99.90;;;;;;5017160;28;20057;-74
2022/11/13 05:41:32;;;;;;;12.07;8.80;;;8.00;99.90;;;;;;5034272;28;20026;-74
2022/11/13 05:43:58;;;;;;;13.75;9.43;;;8.00;99.90;;;;;;5017722;28;20042;-74
2022/11/13 05:46:26;;;;;;;13.23;9.30;;;7.90;99.90;;;;;;5020760;28;20029;-74
2022/11/13 05:48:55;;;;;;;13.68;9.20;;;8.00;99.90;;;;;;5025745;28;20049;-75
2022/11/13 05:51:24;;;;;;;12.90;9.02;;;8.00;99.90;;;;;;5009664;28;20386;-74
2022/11/13 05:53:50;;;;;;;14.55;9.35;;;7.90;99.90;;;;;;5025982;28;20106;-74
2022/11/13 05:56:22;;;;;;;10.10;8.38;;;7.90;99.90;;;;;;5017581;28;20025;-74
2022/11/13 05:58:49;;;;;;;10.48;8.20;;;7.90;99.90;;;;;;5027078;28;20147;-74
2022/11/13 06:01:18;;;;;;;12.85;8.07;;;7.90;99.90;;;;;;5023631;28;20085;-74
2022/11/13 06:03:45;;;;;;;10.60;8.13;;;7.90;99.90;;;;;;5024895;28;20075;-74
2022/11/13 06:06:13;;;;;;;9.23;8.15;;;7.80;99.90;;;;;;5019620;28;20022;-74
2022/11/13 06:08:40;;;;;;;12.38;9.30;;;7.80;99.90;;;;;;5021787;28;20024;-74
2022/11/13 06:11:08;;;;;;;13.43;8.77;;;7.70;99.90;;;;;;5018831;28;20509;-74
2022/11/13 06:13:34;;;;;;;14.82;8.25;;;7.60;99.90;;;;;;5016340;28;20026;-74
2022/11/13 06:16:02;;;;;;;11.30;7.82;;;7.60;99.90;;;;;;5022939;28;20049;-74
2022/11/13 06:18:28;;;;;;;13.35;8.25;;;7.60;99.90;;;;;;5027369;28;20029;-74
2022/11/13 06:20:54;;;;;;;10.35;8.00;;;7.50;99.90;;;;;;5024297;28;20486;-74
2022/11/13 06:23:20;;;;;;;9.07;8.15;;;7.50;99.90;;;;;;5026617;28;20033;-74
2022/11/13 06:25:46;;;;;;;9.45;7.38;;;7.50;99.90;;;;;;5020217;28;20017;-74
2022/11/13 06:28:12;;;;;;;20.38;9.20;;;7.50;99.90;;;;;;5024703;28;20442;-74
2022/11/13 06:30:38;;;;;;;12.25;10.35;;;7.60;99.90;;;;;;5022898;28;20080;-74
2022/11/13 06:33:04;;;;;;;12.02;10.52;;;7.50;99.90;;;;;;5023814;28;20037;-74
2022/11/13 06:35:30;;;;;;;11.05;9.70;;;7.60;99.90;;;;;;5016986;28;20030;-74
2022/11/13 06:37:55;;;;;;;14.10;9.95;;;7.50;99.90;;;;;;5021928;28;20407;-74
2022/11/13 06:40:21;;;;;;;10.52;9.18;;;7.50;99.90;;;;;;5019780;28;20025;-74
2022/11/13 06:42:47;;;;;;;11.35;9.15;;;7.50;99.90;;;;;;5019998;28;20021;-74
2022/11/13 06:45:13;;;;;;;13.43;10.45;;;7.40;99.90;;;;;;5017210;28;20049;-74
2022/11/13 06:47:39;;;;;;;10.93;9.82;;;7.30;99.90;;;;;;5015601;28;20104;-74
2022/11/13 06:50:05;;;;;;;13.85;10.60;;;7.30;99.90;;;;;;5037962;28;20454;-74
2022/11/13 06:52:31;;;;;;;15.88;10.63;;;7.40;99.90;;;;;;5031268;28;20053;-74
2022/11/13 06:54:58;;;;;;;12.70;9.73;;;7.30;99.90;;;;;;5023362;28;20034;-74
2022/11/13 06:57:24;;;;;;;13.63;9.48;;;7.30;99.90;;;;;;5030390;28;20493;-75
2022/11/13 06:59:50;;;;;;;10.43;8.93;;;7.30;99.90;;;;;;5017558;28;20072;-77
2022/11/13 07:02:16;;;;;;;10.45;9.38;;;7.30;99.90;;;;;;5018277;28;20030;-77
2022/11/13 07:04:42;;;;;;;11.48;9.63;;;7.40;99.90;;;;;;5023085;28;20036;-77
2022/11/13 07:07:07;;;;;;;17.23;12.38;;;7.40;99.90;;;;;;5018626;28;20057;-77
2022/11/13 07:09:33;;;;;;;16.98;11.52;;;7.40;99.90;;;;;;5002678;28;20155;-77
2022/11/13 07:11:59;;;;;;;20.30;11.65;;;7.40;99.90;;;;;;5000950;28;20023;-77
2022/11/13 07:14:25;;;;;;;12.38;10.85;;;7.50;99.90;;;;;;5001504;28;20267;-76
2022/11/13 07:16:50;;;;;;;12.30;10.63;;;7.50;99.90;;;;;;5000925;28;20034;-77
2022/11/13 07:19:16;;;;;;;13.65;10.95;;;7.50;99.90;;;;;;5001634;28;20041;-77
2022/11/13 07:21:42;;;;;;;13.88;9.27;;;7.50;99.90;;;;;;5015130;28;20077;-77
2022/11/13 07:24:08;;;;;;;12.32;9.68;;;7.60;99.90;;;;;;5007608;28;20099;-77
2022/11/13 07:26:34;;;;;;;16.27;9.75;;;7.50;99.90;;;;;;5015939;28;20033;-77
2022/11/13 07:28:59;;;;;;;11.40;9.45;;;7.60;99.90;;;;;;5015889;28;20923;-77
2022/11/13 07:31:25;;;;;;;16.85;10.82;;;7.60;99.90;;;;;;5018486;28;20125;-77
2022/11/13 07:33:51;;;;;;;13.50;11.70;;;7.70;99.90;;;;;;5013476;28;20482;-77
2022/11/13 07:36:17;;;;;;;14.80;10.82;;;7.70;99.90;;;;;;5026329;28;20085;-77
2022/11/13 07:38:43;;;;;;;15.45;11.13;;;7.80;99.90;;;;;;5016040;28;20037;-77
2022/11/13 07:41:09;;;;;;;10.65;9.23;;;7.80;99.90;;;;;;5037797;28;20504;-77
2022/11/13 07:43:34;;;;;;;12.95;10.27;;;7.80;99.90;;;;;;5020440;28;20058;-77
2022/11/13 07:46:01;;;;;;;10.52;9.15;;;7.90;99.90;;;;;;5022084;28;20112;-77
2022/11/13 07:48:27;;;;;;;14.90;10.93;;;7.90;99.90;;;;;;5026073;28;20426;-77
2022/11/13 07:50:53;;;;;;;11.27;9.82;;;8.00;99.90;;;;;;5026407;28;20017;-77
2022/11/13 07:53:20;;;;;;;11.68;10.18;;;8.00;99.90;;;;;;5016082;28;20455;-76
2022/11/13 07:55:46;;;;;;;10.63;9.52;;;8.10;99.90;;;;;;5022297;28;20103;-76
2022/11/13 07:58:12;;;;;;;13.02;9.85;;;8.20;99.90;;;;;;5021150;28;20100;-76
2022/11/13 08:00:39;;;;;;;14.07;10.23;;;8.20;99.90;;;;;;5020690;28;20026;-76
2022/11/13 08:03:09;;;;;;;10.88;9.77;;;8.30;99.90;;;;;;5019182;28;20034;-76
2022/11/13 08:05:35;;;;;;;10.95;9.10;;;8.30;99.90;;;;;;5016473;28;20113;-76
2022/11/13 08:08:02;;;;;;;13.82;10.68;;;8.40;99.90;;;;;;5032231;28;20065;-75
2022/11/13 08:10:28;;;;;;;13.82;11.07;;;8.50;99.90;;;;;;5016046;28;20023;-75
2022/11/13 08:13:02;;;;;;;13.27;10.13;;;8.50;99.90;;;;;;5020580;28;20054;-76
2022/11/13 08:15:29;;;;;;;14.80;10.90;;;8.60;99.90;;;;;;5024799;28;20049;-76
2022/11/13 08:17:58;;;;;;;13.02;10.73;;;8.60;99.90;;;;;;5026730;28;20013;-76
2022/11/13 08:20:25;;;;;;;13.82;12.00;;;8.70;99.90;;;;;;5023158;28;20034;-76
2022/11/13 08:22:51;;;;;;;14.60;12.50;;;8.80;99.90;;;;;;5025349;28;20075;-76
2022/11/13 08:25:17;;;;;;;17.27;10.65;;;8.90;99.90;;;;;;5018725;28;20042;-76
2022/11/13 08:27:44;;;;;;;15.73;11.50;;;8.90;99.90;;;;;;5017802;28;20049;-76
2022/11/13 08:30:10;;;;;;;16.63;12.15;;;9.10;99.90;;;;;;5020794;28;20026;-75
2022/11/13 08:32:36;;;;;;;16.40;12.45;;;9.20;99.90;;;;;;5020722;28;20018;-75
2022/11/13 08:35:02;;;;;;;15.05;12.60;;;9.20;99.90;;;;;;5018347;28;20103;-75
2022/11/13 08:37:28;;;;;;;14.43;11.68;;;9.40;99.90;;;;;;5045482;28;20033;-75
2022/11/13 08:39:54;;;;;;;15.85;11.82;;;9.50;99.90;;;;;;5021666;28;20013;-75
2022/11/13 08:42:19;;;;;;;17.65;12.18;;;9.60;99.90;;;;;;5017411;28;20033;-75
2022/11/13 08:44:45;;;;;;;16.75;12.43;;;9.70;99.90;;;;;;5012424;28;20411;-76
2022/11/13 08:47:11;;;;;;;13.05;10.90;;;9.70;99.90;;;;;;5022079;28;20034;-76
2022/11/13 08:49:37;;;;;;;20.60;12.23;;;9.80;99.90;;;;;;5018487;28;20487;-76
2022/11/13 08:52:03;;;;;;;14.43;11.18;;;9.80;99.90;;;;;;5023025;28;20104;-75
2022/11/13 08:54:28;;;;;;;14.57;10.93;;;10.00;99.90;;;;;;5022079;28;20026;-75
2022/11/13 08:56:54;;;;;;;15.23;11.32;;;10.00;99.90;;;;;;5025311;28;20865;-75
2022/11/13 08:59:22;;;;;;;15.32;10.60;;;10.10;99.90;;;;;;5018466;28;20113;-75
2022/11/13 09:01:48;;;;;;;13.13;11.68;;;10.30;99.90;;;;;;5022416;28;20092;-76
2022/11/13 09:04:14;;;;;;;17.23;11.25;;;10.30;99.90;;;;;;5021230;28;20434;-76
2022/11/13 09:06:40;;;;;;;13.40;9.32;;;10.40;99.90;;;;;;5019963;28;20084;-76
2022/11/13 09:09:06;;;;;;;10.95;9.77;;;10.60;99.90;;;;;;5016803;28;20026;-76
2022/11/13 09:11:32;;;;;;;11.35;9.68;;;10.60;99.90;;;;;;5033194;28;20030;-76
2022/11/13 09:13:58;;;;;;;12.05;10.23;;;10.70;99.90;;;;;;5022183;28;20029;-76
2022/11/13 09:16:24;;;;;;;9.90;8.77;;;10.80;99.90;;;;;;5018438;28;20463;-76
2022/11/13 09:18:51;;;;;;;14.02;9.88;;;10.90;99.90;;;;;;5021749;28;20025;-76
2022/11/13 09:21:17;;;;;;;20.70;11.57;;;11.00;99.90;;;;;;5030841;28;20057;-76
2022/11/13 09:23:43;;;;;;;11.48;9.32;;;11.10;99.90;;;;;;5022211;28;20038;-75
2022/11/13 09:26:09;;;;;;;15.05;10.00;;;11.20;99.90;;;;;;5029497;28;20067;-76
2022/11/13 09:28:35;;;;;;;13.80;10.70;;;11.30;99.90;;;;;;5019207;28;20022;-75
2022/11/13 09:31:05;;;;;;;11.25;9.68;;;11.40;99.90;;;;;;5023109;28;20048;-75
2022/11/13 09:33:32;;;;;;;13.95;10.80;;;11.50;99.90;;;;;;5019549;28;20030;-75
2022/11/13 09:35:57;;;;;;;17.08;11.98;;;11.60;99.90;;;;;;5031388;28;20055;-75
2022/11/13 09:38:23;;;;;;;14.05;10.90;;;11.80;99.90;;;;;;5018604;28;20029;-75
2022/11/13 09:41:10;;;;;;;13.32;10.00;;;12.00;99.90;;;;;;5018691;28;20029;-75
2022/11/13 09:43:45;;;;;;;14.00;9.57;;;12.10;99.90;;;;;;5018030;28;20487;-74
2022/11/13 09:46:26;;;;;;;12.82;9.07;;;12.20;99.90;;;;;;5034913;28;20026;-75
2022/11/13 09:49:11;;;;;;;10.27;7.60;;;12.30;99.90;;;;;;5023042;28;20072;-74
2022/11/13 09:51:38;;;;;;;9.85;7.70;;;12.50;99.90;;;;;;5014834;28;20022;-74
2022/11/13 09:54:06;;;;;;;12.82;8.15;;;12.50;99.90;;;;;;5025369;28;20057;-75
2022/11/13 09:56:33;;;;;;;8.95;7.72;;;12.60;99.90;;;;;;5019032;28;20120;-75
2022/11/13 09:59:15;;;;;;;11.82;7.65;;;12.70;99.90;;;;;;5018755;28;20076;-76
2022/11/13 10:02:13;;;;;;;8.80;6.40;;;12.90;99.90;;;;;;5020035;28;20479;-76
2022/11/13 10:05:12;;;;;;;7.40;5.88;;;13.10;99.90;;;;;;5044612;28;20030;-76
2022/11/13 10:07:47;;;;;;;6.85;5.25;;;13.30;99.90;;;;;;5016731;28;20014;-76
2022/11/13 10:10:34;;;;;;;5.88;5.28;;;13.40;99.90;;;;;;5008655;28;20019;-76
2022/11/13 10:13:01;;;;;;;6.18;5.00;;;13.40;99.90;;;;;;5015462;28;20108;-76
2022/11/13 10:15:26;;;;;;;10.40;6.05;;;13.50;99.90;;;;;;5009872;28;20076;-76
2022/11/13 10:18:01;;;;;;;7.90;5.45;;;13.60;99.90;;;;;;5030426;28;20026;-76
2022/11/13 10:20:50;;;;;;;7.32;4.70;;;13.70;99.90;;;;;;5010212;28;20053;-75
2022/11/13 10:23:20;;;;;;;6.35;4.75;;;13.80;99.90;;;;;;5012403;28;20033;-75
2022/11/13 10:25:47;;;;;;;5.65;5.05;;;14.00;99.90;;;;;;5027438;28;20022;-76
2022/11/13 10:28:22;;;;;;;5.63;4.50;;;14.00;99.90;;;;;;5015130;28;20054;-76
2022/11/13 10:30:48;;;;;;;8.60;4.50;;;14.10;99.90;;;;;;5012068;28;20109;-75
2022/11/13 10:33:20;;;;;;;7.20;4.20;;;14.20;99.90;;;;;;5014441;28;20018;-77
2022/11/13 10:35:51;;;;;;;5.38;4.78;;;14.40;99.90;;;;;;5013698;28;20021;-77
2022/11/13 10:38:27;;;;;;;5.50;3.90;;;14.40;99.90;;;;;;5030219;28;20029;-76
2022/11/13 10:41:14;;;;;;;11.43;3.78;;;14.50;99.90;;;;;;5010229;28;20049;-76
2022/11/13 10:43:51;;;;;;;7.00;3.63;;;14.60;99.90;;;;;;5014904;28;20037;-76
2022/11/13 10:46:25;;;;;;;5.38;4.25;;;14.80;99.90;;;;;;5016374;28;20026;-76
2022/11/13 10:48:51;;;;;;;5.65;3.25;;;14.80;99.90;;;;;;5026192;28;20022;-76
2022/11/13 10:51:22;;;;;;;4.15;3.13;;;14.90;99.90;;;;;;5008791;28;20030;-77
2022/11/13 10:53:48;;;;;;;;;;;15.00;99.90;;;;;;5025141;28;20022;-76
2022/11/13 10:56:34;;;;;;;5.68;4.10;;;15.10;99.90;;;;;;5023043;28;19955;-75
2022/11/13 10:59:17;;;;;;;5.13;3.38;;;15.10;99.90;;;;;;5011126;28;20095;-76
2022/11/13 11:01:45;;;;;;;4.30;3.90;;;15.10;99.90;;;;;;5019779;28;20395;-77
2022/11/13 11:04:13;;;;;;;7.47;3.40;;;15.20;99.90;;;;;;5018759;28;20041;-77
2022/11/13 11:06:40;;;;;;;6.35;3.65;;;15.40;99.90;;;;;;5036964;28;20056;-76
2022/11/13 11:09:28;;;;;;;3.42;2.90;;;15.50;99.90;;;;;;5020315;28;20470;-77
2022/11/13 11:12:16;;;;;;;3.97;3.10;;;15.40;99.90;;;;;;5031000;28;20045;-77
2022/11/13 11:14:57;;;;;;;4.63;3.30;;;15.50;99.90;;;;;;5011694;28;20034;-77
2022/11/13 11:18:04;;;;;;;4.50;3.35;;;15.50;99.90;;;;;;5020761;28;20468;-76
2022/11/13 11:20:49;;;;;;;4.65;3.25;;;15.60;99.90;;;;;;5019335;28;20105;-79
2022/11/13 11:23:26;;;;;;;4.85;3.50;;;15.70;99.90;;;;;;5022975;28;20026;-78
2022/11/13 11:26:14;;;;;;;7.28;3.78;;;15.70;99.90;;;;;;5023460;28;20084;-78
2022/11/13 11:29:12;;;;;;;4.20;3.33;;;15.80;99.90;;;;;;5023259;28;20546;-77
2022/11/13 11:31:52;;;;;;;4.75;3.58;;;15.80;99.90;;;;;;5005086;28;20034;-78
2022/11/13 11:34:33;;;;;;;5.17;3.30;;;15.90;99.90;;;;;;5011839;28;20034;-77
2022/11/13 11:37:09;;;;;;;6.78;3.50;;;16.00;99.90;;;;;;5026462;28;20037;-77
2022/11/13 11:39:40;;;;;;;3.88;2.83;;;16.20;99.90;;;;;;5020588;28;20376;-79
2022/11/13 11:42:14;;;;;;;4.28;2.92;;;16.30;99.90;;;;;;5025911;28;20029;-78
2022/11/13 11:44:54;;;;;;;4.65;3.15;;;16.40;99.90;;;;;;5020586;28;20033;-76
2022/11/13 11:47:20;;;;;;;4.10;3.10;;;16.40;99.90;;;;;;5034079;28;20029;-76
2022/11/13 11:49:46;;;;;;;4.50;3.53;;;16.50;99.90;;;;;;5014613;28;20057;-76
2022/11/13 11:52:30;;;;;;;4.85;3.08;;;16.50;99.90;;;;;;5016381;28;20068;-77
2022/11/13 11:55:30;;;;;;;3.45;2.78;;;16.50;99.90;;;;;;5015065;28;20037;-77
2022/11/13 11:57:56;;;;;;;4.93;3.03;;;16.60;99.90;;;;;;5008181;28;20406;-77
2022/11/13 12:00:21;;;;;;;6.78;3.55;;;16.70;99.90;;;;;;4999586;28;20022;-77
2022/11/13 12:03:25;;;;;;;4.45;2.80;;;16.70;99.90;;;;;;5017471;28;20026;-78
2022/11/13 12:06:25;;;;;;;3.95;3.15;;;16.70;99.90;;;;;;5011495;28;20041;-76
2022/11/13 12:09:04;;;;;;;4.93;3.40;;;16.80;99.90;;;;;;5012698;28;20505;-77
2022/11/13 12:11:34;;;;;;;5.53;3.25;;;16.90;99.90;;;;;;4999894;28;20027;-77
2022/11/13 12:14:31;;;;;;;5.32;3.00;;;16.90;99.90;;;;;;5003069;28;20445;-77
2022/11/13 12:17:26;;;;;;;7.38;3.10;;;16.90;99.90;;;;;;5020889;28;20053;-78
2022/11/13 12:20:34;;;;;;;6.70;3.13;;;17.00;99.90;;;;;;5028155;28;20061;-77
2022/11/13 12:23:48;;;;;;;5.40;3.67;;;17.00;99.90;;;;;;5004420;28;20118;-78
2022/11/13 12:26:50;;;;;;;5.32;3.10;;;17.00;99.90;;;;;;5032125;28;20041;-78
2022/11/13 12:29:21;;;;;;;4.28;2.88;;;17.10;99.90;;;;;;5024688;28;20120;-77
2022/11/13 12:31:56;;;;;;;6.75;3.28;;;17.10;99.90;;;;;;5028108;28;20087;-77
2022/11/13 12:34:42;;;;;;;3.95;2.85;;;17.20;99.90;;;;;;5013273;28;20049;-77
2022/11/13 12:37:15;;;;;;;5.63;3.13;;;17.20;99.90;;;;;;5001835;28;20610;-78
2022/11/13 12:39:59;;;;;;;6.82;3.80;;;17.20;99.90;;;;;;5002040;28;20021;-76
2022/11/13 12:42:37;;;;;;;5.22;3.40;;;17.30;99.90;;;;;;5032165;28;20041;-77
2022/11/13 12:45:39;;;;;;;10.27;3.75;;;17.30;99.90;;;;;;4999800;28;20092;-77
2022/11/13 12:48:34;;;;;;;6.72;4.13;;;17.30;99.90;;;;;;4998931;28;20022;-77
2022/11/13 12:51:02;;;;;;;5.60;3.58;;;17.30;99.90;;;;;;5015727;28;20030;-78
2022/11/13 12:53:44;;;;;;;6.82;4.00;;;17.40;99.90;;;;;;5000275;28;20023;-77